createdAt,value
2019-05-16T00:00:49.795Z,82.45
2019-05-16T00:01:49.877Z,83.41
2019-05-16T00:02:50.054Z,85.78
2019-05-16T00:03:50.220Z,85.99
2019-05-16T00:04:50.402Z,86.20
2019-05-16T00:05:54.365Z,85.62
2019-05-16T00:06:51.701Z,85.52
2019-05-16T00:07:50.824Z,84.38
2019-05-16T00:08:51.000Z,83.76
2019-05-16T00:09:51.191Z,84.17
2019-05-16T00:10:51.357Z,84.17
2019-05-16T00:11:51.555Z,84.28
2019-05-16T00:12:51.713Z,84.65
2019-05-16T00:13:51.873Z,84.23
2019-05-16T00:14:52.033Z,84.03
2019-05-16T00:15:52.213Z,84.03
2019-05-16T00:16:52.364Z,82.79
2019-05-16T00:17:52.524Z,84.30
2019-05-16T00:18:53.675Z,83.37
2019-05-16T00:19:52.797Z,81.82
2019-05-16T00:20:52.945Z,83.48
2019-05-16T00:21:53.121Z,82.45
2019-05-16T00:22:53.324Z,82.92
2019-05-16T00:23:53.448Z,82.51
2019-05-16T00:24:53.602Z,83.85
2019-05-16T00:25:53.767Z,84.27
2019-05-16T00:26:53.939Z,85.09
2019-05-16T00:27:54.132Z,82.89
2019-05-16T00:28:54.280Z,82.10
2019-05-16T00:29:54.415Z,83.85
2019-05-16T00:30:54.576Z,84.27
2019-05-16T00:31:54.720Z,86.22
2019-05-16T00:32:54.912Z,85.71
2019-05-16T00:33:55.080Z,84.57
2019-05-16T00:34:55.256Z,84.47
2019-05-16T00:36:02.522Z,84.99
2019-05-16T00:36:58.172Z,86.63
2019-05-16T00:37:55.859Z,86.16
2019-05-16T00:38:57.731Z,85.91
2019-05-16T00:39:56.148Z,85.60
2019-05-16T00:40:56.343Z,85.60
2019-05-16T00:41:58.371Z,86.32
2019-05-16T00:42:58.778Z,85.81
2019-05-16T00:43:57.711Z,86.12
2019-05-16T00:44:58.504Z,86.63
2019-05-16T00:45:58.925Z,86.53
2019-05-16T00:46:58.373Z,86.43
2019-05-16T00:47:58.476Z,85.71
2019-05-16T00:48:59.016Z,87.15
2019-05-16T00:49:58.837Z,86.43
2019-05-16T00:50:58.407Z,86.94
2019-05-16T00:51:59.128Z,86.63
2019-05-16T00:52:58.949Z,86.74
2019-05-16T00:53:59.407Z,85.91
2019-05-16T00:54:58.577Z,86.12
2019-05-16T00:55:58.765Z,85.87
2019-05-16T00:56:58.962Z,86.49
2019-05-16T00:57:59.146Z,86.12
2019-05-16T00:58:59.330Z,87.56
2019-05-16T00:59:59.533Z,87.35
2019-05-16T01:00:59.674Z,88.04
2019-05-16T01:01:59.864Z,86.60
2019-05-16T01:03:00.051Z,86.63
2019-05-16T01:04:00.251Z,85.97
2019-05-16T01:05:00.438Z,86.80
2019-05-16T01:06:00.660Z,86.70
2019-05-16T01:07:01.789Z,86.60
2019-05-16T01:08:02.093Z,87.52
2019-05-16T01:09:01.251Z,86.60
2019-05-16T01:10:01.447Z,86.18
2019-05-16T01:11:01.675Z,86.29
2019-05-16T01:12:01.769Z,87.05
2019-05-16T01:13:01.987Z,86.70
2019-05-16T01:14:02.167Z,85.91
2019-05-16T01:15:02.425Z,86.32
2019-05-16T01:16:02.620Z,86.94
2019-05-16T01:17:02.828Z,86.32
2019-05-16T01:18:02.994Z,85.97
2019-05-16T01:19:03.167Z,84.53
2019-05-16T01:20:03.387Z,85.77
2019-05-16T01:21:03.577Z,87.73
2019-05-16T01:22:03.771Z,86.70
2019-05-16T01:23:03.933Z,87.56
2019-05-16T01:24:04.100Z,87.52
2019-05-16T01:25:04.320Z,86.32
2019-05-16T01:26:04.484Z,85.77
2019-05-16T01:27:04.658Z,86.70
2019-05-16T01:28:04.840Z,87.42
2019-05-16T01:29:05.033Z,88.70
2019-05-16T01:30:05.273Z,88.29
2019-05-16T01:31:05.463Z,88.59
2019-05-16T01:32:05.641Z,89.22
2019-05-16T01:33:05.826Z,89.01
2019-05-16T01:34:07.801Z,88.53
2019-05-16T01:35:08.207Z,89.42
2019-05-16T01:36:08.792Z,88.80
2019-05-16T01:37:08.266Z,87.35
2019-05-16T01:38:08.538Z,87.15
2019-05-16T01:39:07.961Z,87.05
2019-05-16T01:40:08.232Z,86.22
2019-05-16T01:41:08.743Z,86.84
2019-05-16T01:42:08.405Z,87.26
2019-05-16T01:43:08.616Z,87.56
2019-05-16T01:44:08.717Z,88.70
2019-05-16T01:45:08.248Z,89.01
2019-05-16T01:46:09.065Z,88.90
2019-05-16T01:47:08.978Z,87.98
2019-05-16T01:48:09.394Z,87.98
2019-05-16T01:49:08.541Z,88.29
2019-05-16T01:50:08.972Z,87.98
2019-05-16T01:51:09.920Z,89.42
2019-05-16T01:52:09.081Z,88.70
2019-05-16T01:53:09.283Z,89.32
2019-05-16T01:54:09.468Z,89.32
2019-05-16T01:55:09.666Z,88.90
2019-05-16T01:56:09.841Z,89.22
2019-05-16T01:57:10.046Z,89.01
2019-05-16T01:58:10.227Z,86.84
2019-05-16T01:59:10.395Z,86.63
2019-05-16T02:00:10.564Z,87.15
2019-05-16T02:01:15.187Z,86.63
2019-05-16T02:02:12.917Z,86.39
2019-05-16T02:03:11.032Z,87.21
2019-05-16T02:04:12.237Z,88.76
2019-05-16T02:05:12.455Z,87.52
2019-05-16T02:06:11.611Z,86.39
2019-05-16T02:07:11.824Z,86.35
2019-05-16T02:08:12.000Z,86.60
2019-05-16T02:09:12.173Z,87.32
2019-05-16T02:10:12.384Z,88.65
2019-05-16T02:11:12.579Z,87.83
2019-05-16T02:12:12.769Z,87.52
2019-05-16T02:13:12.979Z,87.52
2019-05-16T02:14:13.183Z,88.62
2019-05-16T02:15:13.377Z,87.93
2019-05-16T02:16:13.572Z,89.28
2019-05-16T02:17:13.761Z,88.86
2019-05-16T02:18:13.956Z,88.31
2019-05-16T02:19:14.164Z,87.11
2019-05-16T02:20:14.326Z,87.27
2019-05-16T02:21:14.522Z,87.48
2019-05-16T02:22:14.698Z,87.73
2019-05-16T02:23:14.863Z,87.83
2019-05-16T02:24:15.067Z,87.93
2019-05-16T02:25:15.245Z,88.14
2019-05-16T02:26:15.415Z,88.96
2019-05-16T02:27:15.562Z,89.17
2019-05-16T02:28:15.744Z,88.65
2019-05-16T02:29:15.914Z,88.76
2019-05-16T02:30:16.076Z,88.56
2019-05-16T02:31:16.254Z,88.45
2019-05-16T02:32:16.446Z,88.96
2019-05-16T02:33:16.616Z,89.38
2019-05-16T02:34:16.799Z,89.69
2019-05-16T02:35:16.994Z,88.59
2019-05-16T02:36:17.158Z,88.70
2019-05-16T02:37:28.800Z,88.59
2019-05-16T02:38:21.089Z,89.42
2019-05-16T02:39:21.221Z,89.94
2019-05-16T02:40:20.826Z,90.35
2019-05-16T02:41:21.345Z,89.73
2019-05-16T02:42:21.006Z,90.45
2019-05-16T02:43:25.294Z,90.14
2019-05-16T02:44:24.050Z,89.07
2019-05-16T02:45:21.238Z,89.48
2019-05-16T02:46:21.867Z,87.93
2019-05-16T02:47:21.023Z,89.58
2019-05-16T02:48:21.346Z,90.41
2019-05-16T02:49:21.670Z,90.10
2019-05-16T02:50:22.439Z,90.41
2019-05-16T02:51:21.339Z,90.31
2019-05-16T02:52:21.741Z,88.96
2019-05-16T02:53:22.531Z,89.17
2019-05-16T02:54:21.955Z,90.51
2019-05-16T02:55:21.967Z,90.20
2019-05-16T02:56:21.347Z,89.89
2019-05-16T02:57:22.001Z,90.20
2019-05-16T02:58:23.211Z,90.51
2019-05-16T02:59:22.286Z,91.24
2019-05-16T03:07:00.372Z,90.10
2019-05-16T03:07:41.813Z,88.96
2019-05-16T03:08:41.196Z,89.69
2019-05-16T03:09:41.019Z,89.22
2019-05-16T03:10:41.367Z,89.48
2019-05-16T03:11:41.945Z,89.22
2019-05-16T03:12:41.176Z,88.65
2019-05-16T03:13:42.280Z,88.65
2019-05-16T03:14:41.902Z,90.51
2019-05-16T03:15:40.779Z,89.94
2019-05-16T03:16:41.737Z,89.07
2019-05-16T03:17:40.909Z,88.45
2019-05-16T03:18:41.362Z,88.96
2019-05-16T03:19:41.929Z,89.28
2019-05-16T03:20:41.342Z,89.38
2019-05-16T03:21:41.288Z,90.31
2019-05-16T03:22:41.647Z,90.31
2019-05-16T03:23:41.958Z,89.58
2019-05-16T03:24:42.263Z,90.20
2019-05-16T03:25:42.133Z,90.51
2019-05-16T03:26:41.258Z,90.57
2019-05-16T03:27:41.773Z,90.20
2019-05-16T03:28:41.639Z,90.20
2019-05-16T03:29:42.044Z,89.79
2019-05-16T03:30:45.143Z,90.06
2019-05-16T03:31:45.208Z,90.61
2019-05-16T03:32:45.604Z,90.31
2019-05-16T03:33:56.302Z,90.41
2019-05-16T03:34:44.805Z,90.47
2019-05-16T03:35:44.983Z,90.57
2019-05-16T03:36:44.549Z,90.16
2019-05-16T03:37:55.207Z,90.10
2019-05-16T03:38:45.437Z,90.47
2019-05-16T03:39:43.614Z,89.89
2019-05-16T03:40:43.779Z,90.16
2019-05-16T03:41:43.940Z,90.20
2019-05-16T03:42:44.134Z,89.23
2019-05-16T03:43:44.328Z,88.51
2019-05-16T03:44:44.550Z,89.03
2019-05-16T03:45:44.757Z,88.35
2019-05-16T03:46:44.960Z,88.24
2019-05-16T03:47:45.139Z,88.65
2019-05-16T03:48:45.339Z,88.96
2019-05-16T03:49:45.530Z,90.51
2019-05-16T03:50:45.710Z,90.20
2019-05-16T03:51:45.887Z,90.20
2019-05-16T03:52:46.059Z,89.58
2019-05-16T03:53:46.241Z,90.61
2019-05-16T03:54:46.442Z,89.17
2019-05-16T03:55:46.631Z,89.95
2019-05-16T03:56:47.783Z,89.79
2019-05-16T03:57:46.969Z,89.17
2019-05-16T03:58:47.126Z,88.51
2019-05-16T03:59:47.292Z,88.86
2019-05-16T04:00:51.282Z,89.07
2019-05-16T04:01:51.094Z,89.17
2019-05-16T04:02:47.745Z,89.79
2019-05-16T04:03:50.792Z,89.07
2019-05-16T04:04:50.861Z,88.45
2019-05-16T04:05:52.120Z,87.93
2019-05-16T04:06:50.728Z,88.56
2019-05-16T04:07:53.147Z,88.96
2019-05-16T04:08:51.211Z,89.89
2019-05-16T04:09:50.767Z,90.10
2019-05-16T04:10:52.237Z,89.89
2019-05-16T04:11:51.038Z,90.57
2019-05-16T04:12:51.311Z,89.95
2019-05-16T04:13:50.979Z,89.85
2019-05-16T04:14:51.421Z,90.16
2019-05-16T04:15:52.461Z,89.95
2019-05-16T04:16:51.349Z,90.16
2019-05-16T04:17:51.344Z,89.85
2019-05-16T04:18:51.717Z,90.06
2019-05-16T04:19:51.048Z,90.67
2019-05-16T04:20:52.809Z,90.43
2019-05-16T04:21:52.012Z,89.85
2019-05-16T04:22:51.452Z,89.03
2019-05-16T04:23:52.269Z,89.13
2019-05-16T04:24:51.516Z,89.03
2019-05-16T04:25:52.657Z,89.19
2019-05-16T04:26:52.925Z,88.89
2019-05-16T04:27:52.101Z,89.19
2019-05-16T04:28:52.293Z,88.37
2019-05-16T04:29:52.447Z,87.85
2019-05-16T04:30:52.594Z,87.03
2019-05-16T04:31:52.778Z,86.47
2019-05-16T04:32:52.976Z,86.61
2019-05-16T04:33:53.116Z,85.55
2019-05-16T04:34:53.264Z,81.84
2019-05-16T04:35:53.437Z,83.73
2019-05-16T04:36:53.588Z,83.53
2019-05-16T04:37:53.791Z,83.49
2019-05-16T04:38:53.974Z,79.93
2019-05-16T04:39:54.159Z,79.30
2019-05-16T04:40:54.333Z,79.37
2019-05-16T04:41:54.514Z,78.96
2019-05-16T04:42:54.678Z,78.96
2019-05-16T04:43:54.893Z,80.47
2019-05-16T04:44:55.073Z,80.67
2019-05-16T04:45:56.226Z,82.01
2019-05-16T04:46:55.381Z,81.60
2019-05-16T04:47:55.568Z,81.81
2019-05-16T04:48:55.786Z,79.91
2019-05-16T04:49:55.949Z,80.22
2019-05-16T04:50:56.133Z,81.25
2019-05-16T04:51:56.355Z,78.89
2019-05-16T04:52:56.550Z,76.52
2019-05-16T04:53:56.794Z,77.75
2019-05-16T04:54:56.863Z,75.59
2019-05-16T04:55:57.063Z,74.77
2019-05-16T04:56:57.273Z,75.70
2019-05-16T04:57:57.457Z,75.18
2019-05-16T04:59:00.393Z,73.64
2019-05-16T04:59:57.779Z,75.80
2019-05-16T05:00:57.953Z,75.46
2019-05-16T05:02:01.619Z,77.65
2019-05-16T05:03:01.105Z,77.65
2019-05-16T05:04:09.675Z,77.55
2019-05-16T05:05:01.358Z,75.97
2019-05-16T05:06:01.287Z,75.18
2019-05-16T05:07:00.630Z,74.22
2019-05-16T05:08:01.500Z,72.20
2019-05-16T05:09:03.459Z,73.85
2019-05-16T05:10:00.969Z,71.66
2019-05-16T05:11:01.368Z,71.89
2019-05-16T05:12:04.316Z,73.50
2019-05-16T05:13:01.720Z,71.66
2019-05-16T05:14:01.554Z,71.55
2019-05-16T05:15:01.400Z,71.75
2019-05-16T05:16:01.911Z,72.17
2019-05-16T05:17:02.305Z,72.89
2019-05-16T05:18:02.282Z,73.19
2019-05-16T05:19:01.428Z,75.04
2019-05-16T05:20:01.581Z,73.19
2019-05-16T05:21:01.749Z,75.04
2019-05-16T05:22:01.900Z,70.32
2019-05-16T05:23:02.064Z,72.89
2019-05-16T05:24:02.200Z,71.75
2019-05-16T05:25:02.335Z,71.45
2019-05-16T05:26:02.519Z,71.75
2019-05-16T05:27:02.678Z,73.61
2019-05-16T05:28:02.849Z,70.42
2019-05-16T05:29:02.974Z,72.58
2019-05-16T05:30:03.168Z,71.66
2019-05-16T05:31:03.331Z,71.66
2019-05-16T05:32:04.731Z,71.75
2019-05-16T05:33:04.731Z,71.24
2019-05-16T05:34:03.855Z,72.78
2019-05-16T05:35:03.993Z,71.04
2019-05-16T05:36:04.162Z,73.19
2019-05-16T05:37:04.315Z,73.68
2019-05-16T05:38:04.454Z,71.62
2019-05-16T05:39:11.717Z,69.77
2019-05-16T05:40:06.762Z,70.97
2019-05-16T05:41:04.853Z,71.08
2019-05-16T05:42:06.007Z,71.28
2019-05-16T05:43:05.119Z,68.99
2019-05-16T05:44:05.293Z,68.99
2019-05-16T05:45:05.479Z,67.55
2019-05-16T05:46:05.602Z,67.41
2019-05-16T05:47:05.787Z,67.96
2019-05-16T05:48:05.964Z,67.72
2019-05-16T05:49:06.137Z,68.85
2019-05-16T05:50:06.293Z,68.85
2019-05-16T05:51:06.468Z,69.26
2019-05-16T05:52:06.619Z,65.80
2019-05-16T05:53:06.781Z,67.55
2019-05-16T05:54:06.963Z,69.40
2019-05-16T05:55:07.113Z,67.96
2019-05-16T05:56:07.306Z,69.70
2019-05-16T05:57:09.811Z,69.53
2019-05-16T05:58:09.902Z,66.79
2019-05-16T05:59:07.770Z,67.99
2019-05-16T06:00:09.931Z,69.43
2019-05-16T06:01:10.852Z,68.30
2019-05-16T06:02:11.045Z,66.35
2019-05-16T06:03:10.545Z,70.15
2019-05-16T06:04:10.568Z,67.89
2019-05-16T06:05:10.553Z,68.30
2019-05-16T06:06:10.601Z,67.27
2019-05-16T06:07:10.202Z,66.66
2019-05-16T06:08:10.672Z,67.27
2019-05-16T06:09:24.853Z,67.76
2019-05-16T06:10:11.512Z,65.80
2019-05-16T06:11:10.737Z,64.98
2019-05-16T06:12:10.522Z,65.80
2019-05-16T06:13:11.215Z,66.01
2019-05-16T06:14:11.238Z,67.03
2019-05-16T06:15:12.928Z,66.49
2019-05-16T06:16:11.491Z,66.70
2019-05-16T06:17:11.419Z,67.00
2019-05-16T06:18:11.818Z,67.41
2019-05-16T06:19:11.260Z,66.70
2019-05-16T06:20:14.534Z,64.00
2019-05-16T06:21:12.392Z,65.64
2019-05-16T06:22:11.554Z,65.47
2019-05-16T06:23:11.764Z,65.84
2019-05-16T06:24:11.923Z,64.61
2019-05-16T06:25:13.755Z,65.00
2019-05-16T06:26:13.347Z,67.08
2019-05-16T06:27:12.508Z,64.10
2019-05-16T06:28:12.689Z,64.38
2019-05-16T06:29:12.919Z,63.56
2019-05-16T06:30:13.132Z,63.53
2019-05-16T06:31:14.460Z,64.45
2019-05-16T06:32:14.499Z,63.81
2019-05-16T06:33:13.643Z,63.53
2019-05-16T06:34:15.209Z,65.24
2019-05-16T06:35:15.042Z,64.01
2019-05-16T06:36:14.194Z,63.98
2019-05-16T06:37:14.408Z,62.14
2019-05-16T06:38:14.578Z,63.37
2019-05-16T06:39:14.769Z,64.77
2019-05-16T06:40:15.004Z,63.72
2019-05-16T06:41:15.175Z,62.18
2019-05-16T06:42:15.318Z,61.16
2019-05-16T06:43:34.380Z,62.16
2019-05-16T06:44:15.674Z,62.46
2019-05-16T06:45:15.834Z,63.25
2019-05-16T06:46:15.984Z,62.95
2019-05-16T06:47:19.893Z,61.18
2019-05-16T06:48:20.802Z,60.57
2019-05-16T06:49:16.402Z,60.77
2019-05-16T06:50:16.567Z,57.68
2019-05-16T06:51:16.748Z,60.13
2019-05-16T06:52:16.955Z,59.52
2019-05-16T06:53:17.142Z,57.98
2019-05-16T06:54:17.325Z,60.82
2019-05-16T06:55:17.518Z,59.56
2019-05-16T06:56:19.912Z,57.34
2019-05-16T06:57:17.920Z,58.50
2019-05-16T06:58:21.814Z,59.92
2019-05-16T06:59:20.184Z,58.91
2019-05-16T07:00:20.866Z,57.75
2019-05-16T07:01:20.902Z,58.98
2019-05-16T07:02:27.742Z,57.17
2019-05-16T07:03:21.040Z,57.70
2019-05-16T07:04:20.255Z,58.32
2019-05-16T07:05:20.866Z,58.52
2019-05-16T07:06:45.424Z,57.40
2019-05-16T07:07:21.758Z,57.50
2019-05-16T07:08:20.673Z,58.65
2019-05-16T07:09:21.037Z,59.64
2019-05-16T07:10:20.495Z,60.72
2019-05-16T07:11:21.327Z,64.07
2019-05-16T07:12:20.433Z,61.99
2019-05-16T07:13:20.569Z,59.44
2019-05-16T07:14:22.799Z,59.44
2019-05-16T07:15:21.883Z,59.62
2019-05-16T07:16:21.021Z,57.68
2019-05-16T07:17:21.228Z,58.50
2019-05-16T07:18:21.513Z,57.78
2019-05-16T07:19:21.575Z,57.48
2019-05-16T07:20:21.752Z,57.57
2019-05-16T07:21:21.917Z,58.47
2019-05-16T07:22:22.053Z,57.65
2019-05-16T07:23:23.216Z,58.47
2019-05-16T07:24:22.341Z,58.54
2019-05-16T07:25:22.531Z,57.78
2019-05-16T07:26:22.705Z,58.39
2019-05-16T07:27:22.909Z,60.21
2019-05-16T07:28:23.071Z,56.32
2019-05-16T07:29:23.249Z,58.78
2019-05-16T07:30:23.413Z,57.48
2019-05-16T07:31:23.566Z,58.73
2019-05-16T07:32:23.719Z,59.72
2019-05-16T07:33:23.945Z,58.67
2019-05-16T07:34:24.110Z,58.42
2019-05-16T07:35:24.253Z,58.91
2019-05-16T07:36:24.397Z,59.00
2019-05-16T07:37:24.590Z,58.98
2019-05-16T07:38:24.785Z,58.16
2019-05-16T07:39:24.977Z,57.45
2019-05-16T07:40:26.995Z,56.43
2019-05-16T07:41:26.297Z,58.16
2019-05-16T07:42:25.446Z,57.93
2019-05-16T07:43:25.619Z,57.32
2019-05-16T07:44:25.802Z,58.57
2019-05-16T07:45:26.017Z,58.16
2019-05-16T07:46:26.239Z,58.87
2019-05-16T07:47:26.432Z,59.49
2019-05-16T07:48:26.614Z,56.76
2019-05-16T07:49:26.806Z,57.70
2019-05-16T07:50:26.980Z,57.20
2019-05-16T07:51:27.201Z,57.96
2019-05-16T07:52:27.392Z,59.89
2019-05-16T07:53:27.576Z,57.65
2019-05-16T07:54:34.119Z,57.21
2019-05-16T07:55:30.724Z,57.32
2019-05-16T07:56:30.703Z,57.52
2019-05-16T07:57:30.461Z,57.52
2019-05-16T07:58:31.059Z,57.83
2019-05-16T07:59:29.956Z,57.83
2019-05-16T08:00:47.882Z,57.62
2019-05-16T08:01:31.064Z,58.14
2019-05-16T08:02:31.263Z,58.50
2019-05-16T08:03:30.583Z,59.21
2019-05-16T08:04:30.627Z,58.50
2019-05-16T08:05:30.432Z,58.80
2019-05-16T08:06:33.987Z,58.70
2019-05-16T08:07:33.202Z,59.23
2019-05-16T08:08:31.696Z,58.83
2019-05-16T08:09:31.361Z,60.36
2019-05-16T08:10:37.927Z,59.85
2019-05-16T08:11:32.673Z,59.62
2019-05-16T08:12:33.026Z,58.73
2019-05-16T08:13:31.949Z,59.14
2019-05-16T08:14:34.939Z,58.91
2019-05-16T08:15:31.311Z,58.01
2019-05-16T08:16:31.506Z,59.44
2019-05-16T08:17:31.734Z,58.52
2019-05-16T08:18:31.944Z,58.32
2019-05-16T08:19:32.133Z,58.22
2019-05-16T08:20:32.324Z,57.70
2019-05-16T08:21:32.518Z,56.89
2019-05-16T08:22:32.704Z,56.40
2019-05-16T08:23:32.919Z,57.84
2019-05-16T08:24:36.058Z,59.55
2019-05-16T08:25:34.296Z,59.14
2019-05-16T08:26:38.807Z,58.52
2019-05-16T08:27:35.590Z,58.73
2019-05-16T08:28:33.736Z,58.62
2019-05-16T08:29:33.925Z,58.62
2019-05-16T08:30:34.099Z,58.93
2019-05-16T08:31:34.305Z,59.44
2019-05-16T08:32:34.487Z,59.75
2019-05-16T08:33:34.759Z,58.04
2019-05-16T08:34:34.825Z,58.01
2019-05-16T08:35:35.026Z,59.55
2019-05-16T08:36:35.218Z,59.75
2019-05-16T08:37:42.570Z,58.83
2019-05-16T08:38:37.584Z,60.33
2019-05-16T08:39:35.725Z,58.83
2019-05-16T08:41:01.074Z,57.70
2019-05-16T08:41:38.067Z,59.14
2019-05-16T08:42:36.203Z,57.09
2019-05-16T08:43:36.425Z,57.60
2019-05-16T08:44:36.642Z,57.98
2019-05-16T08:45:36.827Z,59.52
2019-05-16T08:46:37.012Z,58.57
2019-05-16T08:47:37.200Z,60.07
2019-05-16T08:48:37.392Z,57.32
2019-05-16T08:49:37.576Z,56.20
2019-05-16T08:50:41.117Z,55.97
2019-05-16T08:51:37.961Z,55.76
2019-05-16T08:52:38.136Z,55.53
2019-05-16T08:53:43.025Z,54.24
2019-05-16T08:54:43.711Z,54.00
2019-05-16T08:55:43.004Z,57.70
2019-05-16T08:56:43.791Z,56.68
2019-05-16T08:57:40.958Z,55.84
2019-05-16T08:58:41.009Z,56.37
2019-05-16T08:59:41.179Z,56.68
2019-05-16T09:00:41.871Z,57.19
2019-05-16T09:01:50.780Z,56.76
2019-05-16T09:02:42.352Z,56.04
2019-05-16T09:03:41.745Z,58.39
2019-05-16T09:04:44.604Z,57.65
2019-05-16T09:05:42.837Z,56.60
2019-05-16T09:06:42.596Z,56.29
2019-05-16T09:07:41.831Z,57.49
2019-05-16T09:08:40.988Z,54.21
2019-05-16T09:09:48.474Z,55.73
2019-05-16T09:10:51.661Z,54.41
2019-05-16T09:11:45.816Z,53.37
2019-05-16T09:12:42.724Z,53.93
2019-05-16T09:13:41.911Z,51.29
2019-05-16T09:14:42.094Z,53.80
2019-05-16T09:15:42.262Z,51.95
2019-05-16T09:16:42.566Z,52.15
2019-05-16T09:17:42.632Z,52.13
2019-05-16T09:18:45.791Z,53.02
2019-05-16T09:19:44.000Z,52.15
2019-05-16T09:20:43.151Z,50.28
2019-05-16T09:21:43.354Z,50.81
2019-05-16T09:22:43.557Z,50.73
2019-05-16T09:23:43.881Z,51.14
2019-05-16T09:24:43.911Z,54.46
2019-05-16T09:25:44.097Z,56.52
2019-05-16T09:26:47.183Z,54.36
2019-05-16T09:27:46.885Z,54.33
2019-05-16T09:28:47.817Z,54.00
2019-05-16T09:29:47.115Z,54.77
2019-05-16T09:30:46.872Z,52.33
2019-05-16T09:32:03.074Z,53.63
2019-05-16T09:32:48.127Z,51.75
2019-05-16T09:33:47.377Z,53.70
2019-05-16T09:34:47.890Z,54.41
2019-05-16T09:35:47.908Z,55.73
2019-05-16T09:36:48.131Z,51.98
2019-05-16T09:37:47.612Z,53.93
2019-05-16T09:38:48.490Z,53.32
2019-05-16T09:39:48.180Z,52.99
2019-05-16T09:40:48.062Z,52.18
2019-05-16T09:41:54.497Z,52.38
2019-05-16T09:42:48.945Z,54.84
2019-05-16T09:43:48.633Z,55.53
2019-05-16T09:44:48.304Z,56.04
2019-05-16T09:45:47.649Z,53.70
2019-05-16T09:46:47.599Z,52.79
2019-05-16T09:47:48.618Z,55.66
2019-05-16T09:48:48.921Z,55.15
2019-05-16T09:49:48.063Z,56.54
2019-05-16T09:50:48.282Z,53.60
2019-05-16T09:51:48.490Z,54.00
2019-05-16T09:52:48.688Z,51.87
2019-05-16T09:53:48.912Z,54.13
2019-05-16T09:54:49.110Z,55.25
2019-05-16T09:55:49.319Z,54.49
2019-05-16T09:56:49.482Z,50.63
2019-05-16T09:57:49.669Z,52.11
2019-05-16T09:58:50.877Z,52.28
2019-05-16T09:59:50.041Z,54.49
2019-05-16T10:00:50.249Z,50.63
2019-05-16T10:01:50.434Z,50.92
2019-05-16T10:02:50.662Z,50.41
2019-05-16T10:03:50.770Z,49.60
2019-05-16T10:04:50.975Z,50.26
2019-05-16T10:05:51.170Z,50.48
2019-05-16T10:06:51.408Z,51.98
2019-05-16T10:07:51.596Z,52.79
2019-05-16T10:08:51.819Z,52.18
2019-05-16T10:09:52.054Z,53.14
2019-05-16T10:10:52.258Z,52.23
2019-05-16T10:12:07.194Z,52.05
2019-05-16T10:12:54.596Z,52.33
2019-05-16T10:13:52.748Z,52.73
2019-05-16T10:14:52.991Z,52.36
2019-05-16T10:15:53.182Z,53.25
2019-05-16T10:16:53.363Z,53.55
2019-05-16T10:17:53.517Z,52.31
2019-05-16T10:18:53.694Z,51.90
2019-05-16T10:19:56.540Z,52.31
2019-05-16T10:20:58.980Z,53.83
2019-05-16T10:21:59.908Z,51.80
2019-05-16T10:22:57.932Z,54.24
2019-05-16T10:23:56.386Z,54.74
2019-05-16T10:24:57.138Z,53.22
2019-05-16T10:25:56.801Z,53.65
2019-05-16T10:26:57.031Z,51.85
2019-05-16T10:27:55.205Z,54.61
2019-05-16T10:28:57.855Z,57.25
2019-05-16T10:30:00.596Z,57.23
2019-05-16T10:30:57.801Z,55.50
2019-05-16T10:31:57.042Z,55.73
2019-05-16T10:32:57.505Z,58.12
2019-05-16T10:33:58.102Z,58.53
2019-05-16T10:34:57.378Z,56.70
2019-05-16T10:35:58.041Z,58.12
2019-05-16T10:36:57.773Z,57.34
2019-05-16T10:37:57.635Z,58.76
2019-05-16T10:38:59.137Z,58.45
2019-05-16T10:39:59.985Z,58.76
2019-05-16T10:40:58.537Z,57.84
2019-05-16T10:41:57.653Z,57.21
2019-05-16T10:42:58.086Z,56.26
2019-05-16T10:43:59.053Z,57.48
2019-05-16T10:44:58.066Z,59.28
2019-05-16T10:45:58.305Z,55.73
2019-05-16T10:46:58.456Z,56.65
2019-05-16T10:47:58.640Z,56.67
2019-05-16T10:48:58.831Z,55.93
2019-05-16T10:49:59.020Z,57.64
2019-05-16T10:50:59.254Z,57.33
2019-05-16T10:51:59.421Z,57.12
2019-05-16T10:53:22.549Z,57.40
2019-05-16T10:54:09.739Z,54.33
2019-05-16T10:55:02.651Z,54.59
2019-05-16T10:56:01.256Z,55.25
2019-05-16T10:57:00.355Z,53.98
2019-05-16T10:58:00.461Z,55.17
2019-05-16T10:59:37.736Z,54.26
2019-05-16T11:00:13.036Z,56.46
2019-05-16T11:01:19.436Z,57.07
2019-05-16T11:02:03.113Z,56.67
2019-05-16T11:03:01.244Z,56.46
2019-05-16T11:04:01.323Z,57.43
2019-05-16T11:05:20.547Z,56.92
2019-05-16T11:06:06.731Z,57.28
2019-05-16T11:07:03.948Z,57.71
2019-05-16T11:08:03.328Z,58.76
2019-05-16T11:09:02.292Z,58.86
2019-05-16T11:10:03.623Z,58.35
2019-05-16T11:11:03.638Z,57.67
2019-05-16T11:12:02.838Z,58.10
2019-05-16T11:13:02.903Z,58.40
2019-05-16T11:14:03.113Z,58.71
2019-05-16T11:15:03.282Z,59.63
2019-05-16T11:16:03.451Z,60.52
2019-05-16T11:17:03.689Z,58.48
2019-05-16T11:18:03.770Z,60.08
2019-05-16T11:19:14.469Z,59.03
2019-05-16T11:20:06.168Z,58.63
2019-05-16T11:21:04.313Z,57.64
2019-05-16T11:22:04.543Z,60.34
2019-05-16T11:23:07.679Z,61.76
2019-05-16T11:24:11.713Z,59.42
2019-05-16T11:25:20.229Z,61.15
2019-05-16T11:26:07.222Z,59.47
2019-05-16T11:27:07.430Z,60.79
2019-05-16T11:28:07.389Z,60.69
2019-05-16T11:29:07.467Z,60.76
2019-05-16T11:30:07.541Z,59.75
2019-05-16T11:31:07.609Z,59.21
2019-05-16T11:32:07.198Z,59.24
2019-05-16T11:33:07.593Z,59.41
2019-05-16T11:34:07.533Z,58.63
2019-05-16T11:35:07.318Z,58.73
2019-05-16T11:36:12.372Z,59.31
2019-05-16T11:37:08.056Z,59.82
2019-05-16T11:38:07.435Z,60.53
2019-05-16T11:39:08.562Z,61.47
2019-05-16T11:40:08.548Z,60.25
2019-05-16T11:41:07.691Z,58.86
2019-05-16T11:42:08.270Z,59.47
2019-05-16T11:43:17.463Z,59.30
2019-05-16T11:44:10.266Z,61.76
2019-05-16T11:45:09.875Z,61.46
2019-05-16T11:46:09.595Z,61.22
2019-05-16T11:47:08.699Z,60.49
2019-05-16T11:48:08.863Z,61.71
2019-05-16T11:49:09.008Z,61.40
2019-05-16T11:50:10.184Z,58.45
2019-05-16T11:51:09.340Z,61.74
2019-05-16T11:52:09.511Z,61.71
2019-05-16T11:53:09.683Z,59.24
2019-05-16T11:54:09.859Z,59.41
2019-05-16T11:55:10.074Z,61.65
2019-05-16T11:56:10.238Z,58.98
2019-05-16T11:57:10.437Z,61.82
2019-05-16T11:58:10.607Z,57.56
2019-05-16T11:59:10.789Z,57.86
2019-05-16T12:00:10.946Z,57.73
2019-05-16T12:01:11.157Z,58.37
2019-05-16T12:02:11.359Z,60.81
2019-05-16T12:03:11.547Z,58.17
2019-05-16T12:04:11.712Z,59.41
2019-05-16T12:05:11.902Z,59.21
2019-05-16T12:06:12.175Z,59.34
2019-05-16T12:07:12.263Z,61.40
2019-05-16T12:08:12.487Z,61.57
2019-05-16T12:09:12.684Z,61.76
2019-05-16T12:10:12.864Z,61.66
2019-05-16T12:11:13.067Z,63.70
2019-05-16T12:12:13.270Z,62.81
2019-05-16T12:13:25.373Z,63.15
2019-05-16T12:14:16.603Z,62.84
2019-05-16T12:15:16.800Z,63.89
2019-05-16T12:16:18.506Z,64.20
2019-05-16T12:17:16.594Z,65.01
2019-05-16T12:18:17.309Z,64.98
2019-05-16T12:19:17.894Z,65.72
2019-05-16T12:20:16.706Z,64.29
2019-05-16T12:21:17.263Z,66.23
2019-05-16T12:22:18.065Z,65.31
2019-05-16T12:23:17.143Z,65.22
2019-05-16T12:24:31.713Z,65.52
2019-05-16T12:25:17.682Z,64.57
2019-05-16T12:26:17.666Z,63.58
2019-05-16T12:27:17.309Z,65.28
2019-05-16T12:28:17.292Z,63.65
2019-05-16T12:29:17.295Z,63.24
2019-05-16T12:30:17.829Z,64.03
2019-05-16T12:31:17.731Z,63.93
2019-05-16T12:32:17.131Z,62.78
2019-05-16T12:33:18.921Z,63.77
2019-05-16T12:34:18.310Z,62.48
2019-05-16T12:35:17.789Z,63.09
2019-05-16T12:36:18.552Z,63.16
2019-05-16T12:37:17.736Z,63.46
2019-05-16T12:38:17.886Z,63.67
2019-05-16T12:39:18.056Z,64.79
2019-05-16T12:40:18.233Z,64.18
2019-05-16T12:41:18.467Z,64.25
2019-05-16T12:42:18.633Z,64.11
2019-05-16T12:43:18.852Z,66.65
2019-05-16T12:44:19.031Z,65.25
2019-05-16T12:45:19.221Z,65.25
2019-05-16T12:46:19.385Z,65.19
2019-05-16T12:47:19.627Z,68.07
2019-05-16T12:48:20.563Z,66.20
2019-05-16T12:49:20.953Z,65.80
2019-05-16T12:50:20.112Z,66.91
2019-05-16T12:51:20.325Z,64.23
2019-05-16T12:52:20.513Z,66.20
2019-05-16T12:53:23.524Z,64.37
2019-05-16T12:54:22.869Z,65.89
2019-05-16T12:55:21.008Z,65.77
2019-05-16T12:56:21.211Z,66.88
2019-05-16T12:57:27.670Z,65.86
2019-05-16T12:58:25.967Z,65.66
2019-05-16T12:59:23.766Z,66.27
2019-05-16T13:00:22.004Z,65.73
2019-05-16T13:01:30.687Z,64.41